createdAt,value
2023-07-21T00:02:09.170Z,22.80
2023-07-21T00:04:37.829Z,23.24
2023-07-21T00:07:06.898Z,23.12
2023-07-21T00:09:36.413Z,22.31
2023-07-21T00:12:05.788Z,21.68
2023-07-21T00:14:34.732Z,21.32
2023-07-21T00:17:06.747Z,21.04
2023-07-21T00:19:35.591Z,20.74
2023-07-21T00:22:04.590Z,20.52
2023-07-21T00:24:34.209Z,20.48
2023-07-21T00:27:04.047Z,20.38
2023-07-21T00:29:33.678Z,20.34
2023-07-21T00:32:04.985Z,20.25
2023-07-21T00:34:33.830Z,20.31
2023-07-21T00:37:02.569Z,20.31
2023-07-21T00:39:31.441Z,20.25
2023-07-21T00:42:00.188Z,20.24
2023-07-21T00:44:29.781Z,20.20
2023-07-21T00:47:01.417Z,20.25
2023-07-21T00:49:34.624Z,20.20
2023-07-21T00:52:03.367Z,20.30
2023-07-21T00:54:34.395Z,20.29
2023-07-21T00:57:03.931Z,20.71
2023-07-21T00:59:33.395Z,22.18
2023-07-21T01:02:03.139Z,23.17
2023-07-21T01:04:33.774Z,23.96
2023-07-21T01:07:11.511Z,24.53
2023-07-21T01:09:42.205Z,25.09
2023-07-21T01:12:11.997Z,25.77
2023-07-21T01:14:41.553Z,26.13
2023-07-21T01:17:11.858Z,26.34
2023-07-21T01:19:41.675Z,26.53
2023-07-21T01:22:46.990Z,26.43
2023-07-21T01:25:21.121Z,26.47
2023-07-21T01:27:52.611Z,26.85
2023-07-21T01:30:24.235Z,27.41
2023-07-21T01:32:54.518Z,27.84
2023-07-21T01:35:24.961Z,28.30
2023-07-21T01:37:55.201Z,28.56
2023-07-21T01:40:27.222Z,28.62
2023-07-21T01:42:57.295Z,28.71
2023-07-21T01:45:30.645Z,28.72
2023-07-21T01:47:59.699Z,28.85
2023-07-21T01:50:30.330Z,28.78
2023-07-21T01:53:02.791Z,28.13
2023-07-21T01:55:44.170Z,28.09
2023-07-21T01:58:16.605Z,28.38
2023-07-21T02:00:51.696Z,28.69
2023-07-21T02:03:23.235Z,28.71
2023-07-21T02:05:52.865Z,28.61
2023-07-21T02:08:23.592Z,28.58
2023-07-21T02:10:54.087Z,28.55
2023-07-21T02:13:38.912Z,28.51
2023-07-21T02:16:08.325Z,28.60
2023-07-21T02:18:38.032Z,28.46
2023-07-21T02:21:07.017Z,28.33
2023-07-21T02:23:36.108Z,28.04
2023-07-21T02:26:05.117Z,27.64
2023-07-21T02:28:33.971Z,27.79
2023-07-21T02:31:05.773Z,28.03
2023-07-21T02:33:36.050Z,28.32
2023-07-21T02:36:07.073Z,28.56
2023-07-21T02:38:36.147Z,28.68
2023-07-21T02:41:06.563Z,28.82
2023-07-21T02:43:35.652Z,28.89
2023-07-21T02:46:06.120Z,28.84
2023-07-21T02:48:40.714Z,28.82
2023-07-21T02:51:09.551Z,29.00
2023-07-21T02:53:45.305Z,28.92
2023-07-21T02:56:18.091Z,28.93
2023-07-21T02:59:02.783Z,29.19
2023-07-21T03:01:33.281Z,29.27
2023-07-21T03:04:04.769Z,29.18
2023-07-21T03:06:40.822Z,28.96
2023-07-21T03:09:10.582Z,28.68
2023-07-21T03:11:40.254Z,28.61
2023-07-21T03:14:18.277Z,28.54
2023-07-21T03:16:47.358Z,28.48
2023-07-21T03:19:16.617Z,28.60
2023-07-21T03:21:49.349Z,28.38
2023-07-21T03:24:18.383Z,28.63
2023-07-21T03:26:47.975Z,28.78
2023-07-21T03:29:16.835Z,28.56
2023-07-21T03:31:49.943Z,28.58
2023-07-21T03:34:20.649Z,28.80
2023-07-21T03:36:52.234Z,28.84
2023-07-21T03:39:25.356Z,28.89
2023-07-21T03:41:54.311Z,28.94
2023-07-21T03:44:24.130Z,29.13
2023-07-21T03:46:53.895Z,29.16
2023-07-21T03:49:43.903Z,29.27
2023-07-21T03:52:13.075Z,29.15
2023-07-21T03:54:45.382Z,29.10
2023-07-21T03:57:14.400Z,28.87
2023-07-21T03:59:44.268Z,28.74
2023-07-21T04:02:13.446Z,28.65
2023-07-21T04:04:42.818Z,28.54
2023-07-21T04:07:12.151Z,28.45
2023-07-21T04:09:44.586Z,28.45
2023-07-21T04:12:13.802Z,28.13
2023-07-21T04:14:42.811Z,28.23
2023-07-21T04:17:13.588Z,28.28
2023-07-21T04:19:42.861Z,27.89
2023-07-21T04:22:16.128Z,27.93
2023-07-21T04:24:45.062Z,27.81
2023-07-21T04:27:15.517Z,27.66
2023-07-21T04:29:44.633Z,27.65
2023-07-21T04:32:15.951Z,27.59
2023-07-21T04:34:44.747Z,27.49
2023-07-21T04:37:15.573Z,27.42
2023-07-21T04:39:50.547Z,27.29
2023-07-21T04:42:19.630Z,27.32
2023-07-21T04:44:50.217Z,27.35
2023-07-21T04:47:20.682Z,27.34
2023-07-21T04:50:00.234Z,27.37
2023-07-21T04:52:29.210Z,27.41
2023-07-21T04:54:58.228Z,27.47
2023-07-21T04:57:27.750Z,27.36
2023-07-21T04:59:58.114Z,27.26
2023-07-21T05:02:30.958Z,27.25
2023-07-21T05:05:00.784Z,27.12
2023-07-21T05:07:31.429Z,26.74
2023-07-21T05:10:03.567Z,26.42
2023-07-21T05:12:33.272Z,25.90
2023-07-21T05:15:12.226Z,25.45
2023-07-21T05:17:50.479Z,24.88
2023-07-21T05:20:22.282Z,24.19
2023-07-21T05:23:09.245Z,24.28
2023-07-21T05:26:02.296Z,24.04
2023-07-21T05:28:37.480Z,23.77
2023-07-21T05:31:06.553Z,23.64
2023-07-21T05:33:44.892Z,23.42
2023-07-21T05:36:14.161Z,23.16
2023-07-21T05:38:43.332Z,23.14
2023-07-21T05:41:14.715Z,23.00
2023-07-21T05:43:43.652Z,22.86
2023-07-21T05:46:13.319Z,22.63
2023-07-21T05:48:52.434Z,22.45
2023-07-21T05:54:01.796Z,22.44
2023-07-21T05:56:33.068Z,22.39
2023-07-21T05:59:08.097Z,22.38
2023-07-21T06:01:40.940Z,22.38
2023-07-21T06:04:11.553Z,22.52
2023-07-21T06:06:45.753Z,22.73
2023-07-21T06:09:36.484Z,23.09
2023-07-21T06:12:33.962Z,23.51
2023-07-21T06:15:29.414Z,24.03
2023-07-21T06:18:00.903Z,24.30
2023-07-21T06:20:32.243Z,24.48
2023-07-21T06:23:02.949Z,24.70
2023-07-21T06:25:34.254Z,25.34
2023-07-21T06:28:08.615Z,25.56
2023-07-21T06:30:38.041Z,25.94
2023-07-21T06:33:08.459Z,26.38
2023-07-21T06:35:46.973Z,26.83
2023-07-21T06:38:37.771Z,26.80
2023-07-21T06:41:15.757Z,26.89
2023-07-21T06:44:00.655Z,27.07
2023-07-21T06:47:05.184Z,27.21
2023-07-21T06:49:55.071Z,27.44
2023-07-21T06:52:28.171Z,27.63
2023-07-21T06:54:57.493Z,27.65
2023-07-21T06:57:26.893Z,27.64
2023-07-21T06:59:56.151Z,27.50
2023-07-21T07:02:25.238Z,27.53
2023-07-21T07:04:55.672Z,27.43
2023-07-21T07:07:24.642Z,27.32
2023-07-21T07:09:53.533Z,26.97
2023-07-21T07:12:27.136Z,26.55
2023-07-21T07:14:56.368Z,26.65
2023-07-21T07:17:27.560Z,26.62
2023-07-21T07:19:58.534Z,26.77
2023-07-21T07:22:27.695Z,27.10
2023-07-21T07:24:56.694Z,27.55
2023-07-21T07:27:26.175Z,27.89
2023-07-21T07:29:55.091Z,28.18
2023-07-21T07:32:24.057Z,28.22
2023-07-21T07:34:57.520Z,28.64
2023-07-21T07:37:27.474Z,28.55
2023-07-21T07:39:57.289Z,28.87
2023-07-21T07:42:29.147Z,28.94
2023-07-21T07:45:01.173Z,28.89
2023-07-21T07:47:31.064Z,29.20
2023-07-21T07:49:59.916Z,29.20
2023-07-21T07:52:28.712Z,29.52
2023-07-21T07:54:57.596Z,29.65
2023-07-21T07:57:29.461Z,29.31
2023-07-21T07:59:58.473Z,29.04
2023-07-21T08:02:27.195Z,29.21
2023-07-21T08:04:56.717Z,29.19
2023-07-21T08:07:25.356Z,29.38
2023-07-21T08:09:54.258Z,29.51
2023-07-21T08:12:23.139Z,29.68
2023-07-21T08:14:51.835Z,29.81
2023-07-21T08:17:20.814Z,29.47
2023-07-21T08:19:49.775Z,29.61
2023-07-21T08:22:18.823Z,29.95
2023-07-21T08:24:47.801Z,29.78
2023-07-21T08:27:16.653Z,29.95
2023-07-21T08:29:45.846Z,30.17
2023-07-21T08:32:15.481Z,30.28
2023-07-21T08:34:44.398Z,29.91
2023-07-21T08:37:14.197Z,29.54
2023-07-21T08:39:43.360Z,29.45
2023-07-21T08:42:12.554Z,29.49
2023-07-21T08:44:42.322Z,29.47
2023-07-21T08:47:11.314Z,29.11
2023-07-21T08:49:42.750Z,28.86
2023-07-21T08:52:11.616Z,28.52
2023-07-21T08:54:40.592Z,28.28
2023-07-21T08:57:09.550Z,28.15
2023-07-21T08:59:38.597Z,28.12
2023-07-21T09:02:07.719Z,28.41
2023-07-21T09:04:36.675Z,28.73
2023-07-21T09:07:06.040Z,28.78
2023-07-21T09:09:35.161Z,28.85
2023-07-21T09:12:10.556Z,29.27
2023-07-21T09:14:46.577Z,29.48
2023-07-21T09:17:15.941Z,29.58
2023-07-21T09:19:47.487Z,29.19
2023-07-21T09:22:16.342Z,29.14
2023-07-21T09:24:52.717Z,28.92
2023-07-21T09:27:22.084Z,28.65
2023-07-21T09:30:00.209Z,28.56
2023-07-21T09:32:29.228Z,28.52
2023-07-21T09:35:06.860Z,28.58
2023-07-21T09:37:37.158Z,28.57
2023-07-21T09:40:11.641Z,28.62
2023-07-21T09:42:41.839Z,28.55
2023-07-21T09:45:11.604Z,28.42
2023-07-21T09:47:45.079Z,28.27
2023-07-21T09:50:16.644Z,28.28
2023-07-21T09:52:49.335Z,28.14
2023-07-21T09:55:23.605Z,28.47
2023-07-21T09:57:52.575Z,28.61
2023-07-21T10:00:22.852Z,28.83
2023-07-21T10:02:52.862Z,28.89
2023-07-21T10:05:21.731Z,28.94
2023-07-21T10:07:52.536Z,28.93
2023-07-21T10:10:22.020Z,29.28
2023-07-21T10:12:55.387Z,29.40
2023-07-21T10:15:31.320Z,29.33
2023-07-21T10:18:01.402Z,29.62
2023-07-21T10:20:47.634Z,29.54
2023-07-21T10:23:24.617Z,29.74
2023-07-21T10:25:53.669Z,29.63
2023-07-21T10:28:45.863Z,29.62
2023-07-21T10:31:24.807Z,29.43
2023-07-21T10:34:06.957Z,29.01
2023-07-21T10:36:42.393Z,29.04
2023-07-21T10:39:18.072Z,29.04
2023-07-21T10:41:46.976Z,29.04
2023-07-21T10:44:16.853Z,29.00
2023-07-21T10:46:50.973Z,29.05
2023-07-21T10:49:20.716Z,29.11
2023-07-21T10:51:51.728Z,29.25
2023-07-21T10:54:20.674Z,29.32
2023-07-21T10:56:51.474Z,29.31
2023-07-21T10:59:21.894Z,29.43
2023-07-21T11:01:55.961Z,29.38
2023-07-21T11:04:25.096Z,29.33
2023-07-21T11:06:56.379Z,29.39
2023-07-21T11:09:26.794Z,29.25
2023-07-21T11:11:59.474Z,29.56
2023-07-21T11:14:29.896Z,29.62
2023-07-21T11:17:04.421Z,29.47
2023-07-21T11:19:36.078Z,29.63
2023-07-21T11:22:09.075Z,29.59
2023-07-21T11:24:37.898Z,29.59
2023-07-21T11:27:12.798Z,29.49
2023-07-21T11:29:45.615Z,29.32
2023-07-21T11:32:22.401Z,29.24
2023-07-21T11:35:01.071Z,29.23
2023-07-21T11:37:44.733Z,29.22
2023-07-21T11:40:21.518Z,29.30
2023-07-21T11:42:51.238Z,29.32
2023-07-21T11:45:43.494Z,29.28
2023-07-21T11:48:16.619Z,29.32
2023-07-21T11:50:53.980Z,29.31
2023-07-21T11:53:25.538Z,29.17
2023-07-21T11:55:55.049Z,29.37
2023-07-21T11:58:24.166Z,29.15
2023-07-21T12:00:52.917Z,29.35
2023-07-21T12:03:21.977Z,29.23
2023-07-21T12:05:51.655Z,28.94
2023-07-21T12:08:20.638Z,28.97
2023-07-21T12:10:49.657Z,28.75
2023-07-21T12:13:18.474Z,28.78
2023-07-21T12:15:47.542Z,28.62
2023-07-21T12:18:16.395Z,28.45
2023-07-21T12:20:47.656Z,28.16
2023-07-21T12:23:16.819Z,28.26
2023-07-21T12:25:45.877Z,28.19
2023-07-21T12:28:15.517Z,28.27
2023-07-21T12:30:47.707Z,28.23
2023-07-21T12:33:17.526Z,28.30
2023-07-21T12:35:48.036Z,28.23
2023-07-21T12:38:17.758Z,28.21
2023-07-21T12:40:47.001Z,28.12
2023-07-21T12:43:15.965Z,28.12
2023-07-21T12:45:44.863Z,28.09
2023-07-21T12:48:13.796Z,28.16
2023-07-21T12:50:43.246Z,28.16
2023-07-21T12:53:12.276Z,28.16
2023-07-21T12:55:43.958Z,28.12
2023-07-21T12:58:13.175Z,28.13
2023-07-21T13:00:43.258Z,28.08
2023-07-21T13:03:16.066Z,28.06
2023-07-21T13:05:55.812Z,28.09
2023-07-21T13:08:26.927Z,28.04
2023-07-21T13:10:56.339Z,28.06
2023-07-21T13:13:25.113Z,28.04
2023-07-21T13:15:54.119Z,28.00
2023-07-21T13:18:23.117Z,27.86
2023-07-21T13:20:52.174Z,27.77
2023-07-21T13:23:22.291Z,27.91
2023-07-21T13:25:51.730Z,27.89
2023-07-21T13:28:21.097Z,27.88
2023-07-21T13:30:49.853Z,27.93
2023-07-21T13:33:19.439Z,27.81
2023-07-21T13:35:51.634Z,27.80
2023-07-21T13:38:20.796Z,27.74
2023-07-21T13:40:50.344Z,27.69
2023-07-21T13:43:19.599Z,27.66
2023-07-21T13:45:48.547Z,27.52
2023-07-21T13:48:17.598Z,27.44
2023-07-21T13:50:46.735Z,27.09
2023-07-21T13:53:18.092Z,27.13
2023-07-21T13:55:46.971Z,26.78
2023-07-21T13:58:15.634Z,26.84
2023-07-21T14:00:44.602Z,26.72
2023-07-21T14:03:13.452Z,26.51
2023-07-21T14:05:42.371Z,26.24
2023-07-21T14:08:14.331Z,26.24
2023-07-21T14:10:43.222Z,26.14
2023-07-21T14:13:12.556Z,26.06
2023-07-21T14:15:41.393Z,25.84
2023-07-21T14:18:10.554Z,25.69
2023-07-21T14:20:40.290Z,25.61
2023-07-21T14:23:09.408Z,25.48
2023-07-21T14:25:38.607Z,25.24
2023-07-21T14:28:08.271Z,25.11
2023-07-21T14:30:38.318Z,24.99
2023-07-21T14:33:07.950Z,24.98
2023-07-21T14:35:37.088Z,24.89
2023-07-21T14:38:06.666Z,24.73
2023-07-21T14:40:35.924Z,24.63
2023-07-21T14:43:05.200Z,24.60
2023-07-21T14:45:35.003Z,24.52
2023-07-21T14:48:03.918Z,24.53
2023-07-21T14:50:35.054Z,24.45
2023-07-21T14:53:04.483Z,24.40
2023-07-21T14:55:33.945Z,24.20
2023-07-21T14:58:03.257Z,24.17
2023-07-21T15:00:32.239Z,23.96
2023-07-21T15:03:01.271Z,23.74
2023-07-21T15:05:30.381Z,23.52
2023-07-21T15:07:59.199Z,23.44
2023-07-21T15:10:32.792Z,23.23
2023-07-21T15:13:01.700Z,23.16
2023-07-21T15:15:30.783Z,23.02
2023-07-21T15:17:59.857Z,22.88
2023-07-21T15:20:29.088Z,22.66
2023-07-21T15:22:58.644Z,22.37
2023-07-21T15:25:27.665Z,22.50
2023-07-21T15:27:56.437Z,22.40
2023-07-21T15:30:26.195Z,22.24
2023-07-21T15:32:58.078Z,21.96
2023-07-21T15:35:27.107Z,22.16
2023-07-21T15:37:55.999Z,22.03
2023-07-21T15:40:28.411Z,22.00
2023-07-21T15:42:58.311Z,21.69
2023-07-21T15:45:27.109Z,21.85
2023-07-21T15:47:56.311Z,21.76
2023-07-21T15:50:25.436Z,21.65
2023-07-21T15:52:54.501Z,21.44
2023-07-21T15:55:23.541Z,21.46
2023-07-21T15:57:55.057Z,21.39
2023-07-21T16:00:23.959Z,21.25
2023-07-21T16:02:53.124Z,21.33
2023-07-21T16:05:22.635Z,21.23
2023-07-21T16:07:51.457Z,21.31
2023-07-21T16:10:21.144Z,21.39
2023-07-21T16:12:51.515Z,21.27
2023-07-21T16:15:21.083Z,21.23
2023-07-21T16:17:50.581Z,21.32
2023-07-21T16:20:20.071Z,21.32
2023-07-21T16:22:51.637Z,21.17
2023-07-21T16:25:21.071Z,21.20
2023-07-21T16:27:53.313Z,21.23
2023-07-21T16:30:22.885Z,21.20
2023-07-21T16:32:52.694Z,21.14
2023-07-21T16:35:23.067Z,21.05
2023-07-21T16:37:51.910Z,21.05
2023-07-21T16:40:24.635Z,21.24
2023-07-21T16:42:53.723Z,21.23
2023-07-21T16:45:23.192Z,21.32
2023-07-21T16:47:54.432Z,21.35
2023-07-21T16:50:27.456Z,21.33
2023-07-21T16:52:56.195Z,21.36
2023-07-21T16:55:25.417Z,21.37
2023-07-21T16:57:54.273Z,21.39
2023-07-21T17:00:23.960Z,21.36
2023-07-21T17:02:53.234Z,21.26
2023-07-21T17:05:32.082Z,21.20
2023-07-21T17:08:02.562Z,21.23
2023-07-21T17:10:31.873Z,21.21
2023-07-21T17:13:01.957Z,21.18
2023-07-21T17:15:34.386Z,21.07
2023-07-21T17:18:06.543Z,20.94
2023-07-21T17:20:36.563Z,20.89
2023-07-21T17:23:05.176Z,20.87
2023-07-21T17:25:35.156Z,20.85
2023-07-21T17:28:04.708Z,20.82
2023-07-21T17:30:34.290Z,20.76
2023-07-21T17:33:03.462Z,20.56
2023-07-21T17:35:33.069Z,20.53
2023-07-21T17:38:02.573Z,20.46
2023-07-21T17:40:34.216Z,20.27
2023-07-21T17:43:04.012Z,20.28
2023-07-21T17:45:33.022Z,20.15
2023-07-21T17:48:05.104Z,20.01
2023-07-21T17:50:34.037Z,19.91
2023-07-21T17:53:03.044Z,19.87
2023-07-21T17:55:32.236Z,19.75
2023-07-21T17:58:01.077Z,19.72
2023-07-21T18:00:40.502Z,19.33
2023-07-21T18:03:10.430Z,19.49
2023-07-21T18:05:40.237Z,19.41
2023-07-21T18:08:11.536Z,19.33
2023-07-21T18:10:46.097Z,19.31
2023-07-21T18:13:24.277Z,19.09
2023-07-21T18:15:54.264Z,19.15
2023-07-21T18:18:24.295Z,19.15
2023-07-21T18:21:08.554Z,19.10
2023-07-21T18:23:38.768Z,18.99
2023-07-21T18:26:07.612Z,18.99
2023-07-21T18:28:39.537Z,18.95
2023-07-21T18:31:11.666Z,19.00
2023-07-21T18:33:40.746Z,19.00
2023-07-21T18:36:19.202Z,19.05
2023-07-21T18:38:48.694Z,19.08
2023-07-21T18:41:20.308Z,19.18
2023-07-21T18:43:51.568Z,19.21
2023-07-21T18:46:23.133Z,19.22
2023-07-21T18:48:52.833Z,19.23
2023-07-21T18:51:22.594Z,19.30
2023-07-21T18:53:51.521Z,19.33
2023-07-21T18:56:20.435Z,19.30
2023-07-21T18:58:52.648Z,19.31
2023-07-21T19:01:25.916Z,18.98
2023-07-21T19:03:58.494Z,19.26
2023-07-21T19:06:27.335Z,19.26
2023-07-21T19:08:56.677Z,19.17
2023-07-21T19:11:26.612Z,19.16
2023-07-21T19:13:55.594Z,18.86
2023-07-21T19:16:27.100Z,19.09
2023-07-21T19:18:55.830Z,18.81
2023-07-21T19:21:25.454Z,19.22
2023-07-21T19:24:01.242Z,18.92
2023-07-21T19:26:32.805Z,19.18
2023-07-21T19:29:01.834Z,18.94
2023-07-21T19:31:33.120Z,19.01
2023-07-21T19:34:06.102Z,18.89
2023-07-21T19:36:35.478Z,18.92
2023-07-21T19:39:05.274Z,18.92
2023-07-21T19:41:34.243Z,18.86
2023-07-21T19:44:03.293Z,18.83
2023-07-21T19:46:35.621Z,18.82
2023-07-21T19:49:06.442Z,18.81
2023-07-21T19:51:35.278Z,18.85
2023-07-21T19:54:04.054Z,18.82
2023-07-21T19:56:33.076Z,18.82
2023-07-21T19:59:02.488Z,18.87
2023-07-21T20:01:34.271Z,18.84
2023-07-21T20:04:05.813Z,18.84
2023-07-21T20:06:34.390Z,18.83
2023-07-21T20:09:03.094Z,18.84
2023-07-21T20:11:32.928Z,18.77
2023-07-21T20:14:02.049Z,18.63
2023-07-21T20:16:31.049Z,18.60
2023-07-21T20:18:59.942Z,18.46
2023-07-21T20:21:29.080Z,18.26
2023-07-21T20:23:58.086Z,18.22
2023-07-21T20:26:27.440Z,18.09
2023-07-21T20:28:59.321Z,18.21
2023-07-21T20:31:29.369Z,18.15
2023-07-21T20:33:58.593Z,18.23
2023-07-21T20:36:27.819Z,18.28
2023-07-21T20:38:56.697Z,18.28
2023-07-21T20:41:25.363Z,18.26
2023-07-21T20:43:53.915Z,18.23
2023-07-21T20:46:23.570Z,18.15
2023-07-21T20:48:52.414Z,18.05
2023-07-21T20:51:21.134Z,17.88
2023-07-21T20:53:50.446Z,17.92
2023-07-21T20:56:19.171Z,17.89
2023-07-21T20:58:51.032Z,17.77
2023-07-21T21:01:20.000Z,17.76
2023-07-21T21:03:48.913Z,17.68
2023-07-21T21:06:18.078Z,17.67
2023-07-21T21:08:49.373Z,17.66
2023-07-21T21:11:17.874Z,17.60
2023-07-21T21:13:47.133Z,17.53
2023-07-21T21:16:16.078Z,17.49
2023-07-21T21:18:45.035Z,17.52
2023-07-21T21:21:16.376Z,17.47
2023-07-21T21:23:45.033Z,17.06
2023-07-21T21:26:13.776Z,17.27
2023-07-21T21:28:42.877Z,17.22
2023-07-21T21:31:11.811Z,17.13
2023-07-21T21:33:40.577Z,17.04
2023-07-21T21:36:09.493Z,17.08
2023-07-21T21:38:38.740Z,17.11
2023-07-21T21:41:07.776Z,16.98
2023-07-21T21:43:36.517Z,16.70
2023-07-21T21:46:05.315Z,16.71
2023-07-21T21:48:34.544Z,16.82
2023-07-21T21:51:03.537Z,16.79
2023-07-21T21:53:32.234Z,16.49
2023-07-21T21:56:01.115Z,16.64
2023-07-21T21:58:33.916Z,16.71
2023-07-21T22:01:06.002Z,16.59
2023-07-21T22:03:36.970Z,16.69
2023-07-21T22:06:06.345Z,16.70
2023-07-21T22:08:35.352Z,16.58
2023-07-21T22:11:05.380Z,16.70
2023-07-21T22:13:35.075Z,16.68
2023-07-21T22:16:05.326Z,16.71
2023-07-21T22:18:34.157Z,16.68
2023-07-21T22:21:05.202Z,16.70
2023-07-21T22:23:34.269Z,16.68
2023-07-21T22:26:07.479Z,16.60
2023-07-21T22:28:36.635Z,16.65
2023-07-21T22:31:19.353Z,16.48
2023-07-21T22:33:48.154Z,16.48
2023-07-21T22:36:18.458Z,16.48
2023-07-21T22:38:47.774Z,16.45
2023-07-21T22:41:16.555Z,16.35
2023-07-21T22:43:46.252Z,16.38
2023-07-21T22:46:15.060Z,16.35
2023-07-21T22:48:44.030Z,16.38
2023-07-21T22:51:12.751Z,16.21
2023-07-21T22:53:42.259Z,16.05
2023-07-21T22:56:11.613Z,16.36
2023-07-21T22:58:42.930Z,16.39
2023-07-21T23:01:12.825Z,16.43
2023-07-21T23:03:41.774Z,16.40
2023-07-21T23:06:10.473Z,16.51
2023-07-21T23:08:39.399Z,16.46
2023-07-21T23:11:08.057Z,16.30
2023-07-21T23:13:36.936Z,16.41
2023-07-21T23:16:09.291Z,16.31
2023-07-21T23:18:38.147Z,16.41
2023-07-21T23:21:06.891Z,16.39
2023-07-21T23:23:35.780Z,16.42
2023-07-21T23:26:07.262Z,16.41
2023-07-21T23:28:35.853Z,16.42
2023-07-21T23:31:05.723Z,16.37
2023-07-21T23:33:37.018Z,16.30
2023-07-21T23:36:06.111Z,16.32
2023-07-21T23:38:35.118Z,16.43
2023-07-21T23:41:04.095Z,16.37
2023-07-21T23:43:32.764Z,16.44
2023-07-21T23:46:01.610Z,16.28
2023-07-21T23:48:31.613Z,16.54
2023-07-21T23:51:00.237Z,16.48
2023-07-21T23:53:29.396Z,16.54
2023-07-21T23:55:58.180Z,16.55
2023-07-21T23:58:26.991Z,16.66
